sensor_id;sensor_type;location;lat;lon;timestamp;P1;durP1;ratioP1;P2;durP2;ratioP2
24843;SDS011;12921;51.392;12.240;2023-03-13T00:00:15;4.18;;;2.05;;
24843;SDS011;12921;51.392;12.240;2023-03-13T00:02:41;1.50;;;0.93;;
24843;SDS011;12921;51.392;12.240;2023-03-13T00:05:10;7.22;;;1.08;;
24843;SDS011;12921;51.392;12.240;2023-03-13T00:07:36;4.25;;;1.80;;
24843;SDS011;12921;51.392;12.240;2023-03-13T00:10:02;9.02;;;1.52;;
24843;SDS011;12921;51.392;12.240;2023-03-13T00:12:28;4.03;;;1.48;;
24843;SDS011;12921;51.392;12.240;2023-03-13T00:14:55;6.15;;;1.27;;
24843;SDS011;12921;51.392;12.240;2023-03-13T00:17:21;2.78;;;1.50;;
24843;SDS011;12921;51.392;12.240;2023-03-13T00:19:47;0.93;;;0.93;;
24843;SDS011;12921;51.392;12.240;2023-03-13T00:22:13;3.83;;;1.73;;
24843;SDS011;12921;51.392;12.240;2023-03-13T00:24:39;9.35;;;2.28;;
24843;SDS011;12921;51.392;12.240;2023-03-13T00:27:05;3.63;;;1.30;;
24843;SDS011;12921;51.392;12.240;2023-03-13T00:29:31;3.08;;;1.50;;
24843;SDS011;12921;51.392;12.240;2023-03-13T00:31:58;6.47;;;2.10;;
24843;SDS011;12921;51.392;12.240;2023-03-13T00:34:24;5.32;;;2.30;;
24843;SDS011;12921;51.392;12.240;2023-03-13T00:36:51;2.83;;;1.23;;
24843;SDS011;12921;51.392;12.240;2023-03-13T00:39:18;2.78;;;1.75;;
24843;SDS011;12921;51.392;12.240;2023-03-13T00:41:44;1.08;;;1.08;;
24843;SDS011;12921;51.392;12.240;2023-03-13T00:44:11;5.70;;;1.95;;
24843;SDS011;12921;51.392;12.240;2023-03-13T00:46:37;9.65;;;1.75;;
24843;SDS011;12921;51.392;12.240;2023-03-13T00:49:03;6.80;;;1.65;;
24843;SDS011;12921;51.392;12.240;2023-03-13T00:51:29;2.38;;;1.80;;
24843;SDS011;12921;51.392;12.240;2023-03-13T00:53:56;8.13;;;2.42;;
24843;SDS011;12921;51.392;12.240;2023-03-13T00:56:24;8.63;;;2.15;;
24843;SDS011;12921;51.392;12.240;2023-03-13T00:58:50;9.98;;;1.85;;
24843;SDS011;12921;51.392;12.240;2023-03-13T01:01:18;8.77;;;2.17;;
24843;SDS011;12921;51.392;12.240;2023-03-13T01:03:45;7.53;;;2.15;;
24843;SDS011;12921;51.392;12.240;2023-03-13T01:06:12;10.82;;;2.83;;
24843;SDS011;12921;51.392;12.240;2023-03-13T01:08:39;11.02;;;2.80;;
24843;SDS011;12921;51.392;12.240;2023-03-13T01:11:05;11.23;;;2.03;;
24843;SDS011;12921;51.392;12.240;2023-03-13T01:13:32;1.58;;;1.42;;
24843;SDS011;12921;51.392;12.240;2023-03-13T01:16:05;25.52;;;2.88;;
24843;SDS011;12921;51.392;12.240;2023-03-13T01:18:32;5.20;;;1.33;;
24843;SDS011;12921;51.392;12.240;2023-03-13T01:20:59;8.65;;;2.05;;
24843;SDS011;12921;51.392;12.240;2023-03-13T01:23:25;7.57;;;2.25;;
24843;SDS011;12921;51.392;12.240;2023-03-13T01:25:52;15.38;;;2.17;;
24843;SDS011;12921;51.392;12.240;2023-03-13T01:28:18;3.00;;;1.40;;
24843;SDS011;12921;51.392;12.240;2023-03-13T01:30:44;0.73;;;0.47;;
24843;SDS011;12921;51.392;12.240;2023-03-13T01:33:10;9.32;;;1.88;;
24843;SDS011;12921;51.392;12.240;2023-03-13T01:35:36;0.20;;;0.20;;
24843;SDS011;12921;51.392;12.240;2023-03-13T01:38:02;6.32;;;1.95;;
24843;SDS011;12921;51.392;12.240;2023-03-13T01:40:28;4.85;;;1.42;;
24843;SDS011;12921;51.392;12.240;2023-03-13T01:42:55;6.95;;;1.70;;
24843;SDS011;12921;51.392;12.240;2023-03-13T01:48:06;9.70;;;1.15;;
24843;SDS011;12921;51.392;12.240;2023-03-13T01:50:32;8.45;;;2.13;;
24843;SDS011;12921;51.392;12.240;2023-03-13T01:52:58;0.60;;;0.60;;
24843;SDS011;12921;51.392;12.240;2023-03-13T01:55:25;6.60;;;3.00;;
24843;SDS011;12921;51.392;12.240;2023-03-13T01:57:51;19.23;;;2.17;;
24843;SDS011;12921;51.392;12.240;2023-03-13T02:00:19;6.90;;;1.92;;
24843;SDS011;12921;51.392;12.240;2023-03-13T02:02:47;9.48;;;1.80;;
24843;SDS011;12921;51.392;12.240;2023-03-13T02:05:15;26.45;;;3.80;;
24843;SDS011;12921;51.392;12.240;2023-03-13T02:08:03;7.85;;;2.17;;
24843;SDS011;12921;51.392;12.240;2023-03-13T02:10:28;11.60;;;2.67;;
24843;SDS011;12921;51.392;12.240;2023-03-13T02:12:56;9.77;;;2.85;;
24843;SDS011;12921;51.392;12.240;2023-03-13T02:15:23;2.45;;;1.33;;
24843;SDS011;12921;51.392;12.240;2023-03-13T02:17:52;10.57;;;2.35;;
24843;SDS011;12921;51.392;12.240;2023-03-13T02:20:19;7.50;;;1.95;;
24843;SDS011;12921;51.392;12.240;2023-03-13T02:22:59;6.75;;;2.70;;
24843;SDS011;12921;51.392;12.240;2023-03-13T02:30:43;13.98;;;2.80;;
24843;SDS011;12921;51.392;12.240;2023-03-13T02:33:12;3.90;;;2.08;;
24843;SDS011;12921;51.392;12.240;2023-03-13T02:35:39;8.52;;;2.30;;
24843;SDS011;12921;51.392;12.240;2023-03-13T02:38:06;9.25;;;2.75;;
24843;SDS011;12921;51.392;12.240;2023-03-13T02:40:34;17.52;;;4.32;;
24843;SDS011;12921;51.392;12.240;2023-03-13T02:43:02;2.10;;;1.75;;
24843;SDS011;12921;51.392;12.240;2023-03-13T02:45:29;8.68;;;2.83;;
24843;SDS011;12921;51.392;12.240;2023-03-13T02:47:55;14.13;;;3.90;;
24843;SDS011;12921;51.392;12.240;2023-03-13T02:50:21;16.75;;;3.70;;
24843;SDS011;12921;51.392;12.240;2023-03-13T02:52:49;9.05;;;2.25;;
24843;SDS011;12921;51.392;12.240;2023-03-13T02:55:26;12.20;;;3.35;;
24843;SDS011;12921;51.392;12.240;2023-03-13T02:57:53;8.88;;;2.50;;
24843;SDS011;12921;51.392;12.240;2023-03-13T03:00:19;10.38;;;2.28;;
24843;SDS011;12921;51.392;12.240;2023-03-13T03:02:50;10.82;;;3.10;;
24843;SDS011;12921;51.392;12.240;2023-03-13T03:05:16;16.33;;;4.80;;
24843;SDS011;12921;51.392;12.240;2023-03-13T03:07:42;10.13;;;3.20;;
24843;SDS011;12921;51.392;12.240;2023-03-13T03:10:09;13.50;;;3.60;;
24843;SDS011;12921;51.392;12.240;2023-03-13T03:12:35;8.77;;;3.53;;
24843;SDS011;12921;51.392;12.240;2023-03-13T03:15:01;10.73;;;3.33;;
24843;SDS011;12921;51.392;12.240;2023-03-13T03:17:28;16.65;;;3.08;;
24843;SDS011;12921;51.392;12.240;2023-03-13T03:19:54;5.93;;;1.95;;
24843;SDS011;12921;51.392;12.240;2023-03-13T03:22:21;5.10;;;1.52;;
24843;SDS011;12921;51.392;12.240;2023-03-13T03:24:47;4.75;;;0.77;;
24843;SDS011;12921;51.392;12.240;2023-03-13T03:27:13;6.22;;;2.47;;
24843;SDS011;12921;51.392;12.240;2023-03-13T03:29:39;11.30;;;2.90;;
24843;SDS011;12921;51.392;12.240;2023-03-13T03:32:05;15.45;;;2.63;;
24843;SDS011;12921;51.392;12.240;2023-03-13T03:34:31;18.63;;;4.05;;
24843;SDS011;12921;51.392;12.240;2023-03-13T03:36:57;6.28;;;2.03;;
24843;SDS011;12921;51.392;12.240;2023-03-13T03:39:23;10.70;;;2.33;;
24843;SDS011;12921;51.392;12.240;2023-03-13T03:41:49;11.38;;;2.35;;
24843;SDS011;12921;51.392;12.240;2023-03-13T03:44:15;18.20;;;2.65;;
24843;SDS011;12921;51.392;12.240;2023-03-13T03:46:41;11.13;;;2.42;;
24843;SDS011;12921;51.392;12.240;2023-03-13T03:49:07;13.25;;;3.50;;
24843;SDS011;12921;51.392;12.240;2023-03-13T03:51:33;14.15;;;2.95;;
24843;SDS011;12921;51.392;12.240;2023-03-13T03:53:59;13.85;;;2.35;;
24843;SDS011;12921;51.392;12.240;2023-03-13T03:56:25;9.38;;;3.15;;
24843;SDS011;12921;51.392;12.240;2023-03-13T03:58:51;10.88;;;2.65;;
24843;SDS011;12921;51.392;12.240;2023-03-13T04:01:17;11.63;;;3.35;;
24843;SDS011;12921;51.392;12.240;2023-03-13T04:03:43;27.58;;;3.17;;
24843;SDS011;12921;51.392;12.240;2023-03-13T04:06:09;14.35;;;3.03;;
24843;SDS011;12921;51.392;12.240;2023-03-13T04:08:35;9.45;;;3.45;;
24843;SDS011;12921;51.392;12.240;2023-03-13T04:11:01;8.48;;;2.30;;
24843;SDS011;12921;51.392;12.240;2023-03-13T04:13:27;9.20;;;2.30;;
24843;SDS011;12921;51.392;12.240;2023-03-13T04:15:53;15.55;;;4.60;;
24843;SDS011;12921;51.392;12.240;2023-03-13T04:18:19;10.73;;;1.33;;
24843;SDS011;12921;51.392;12.240;2023-03-13T04:20:45;7.45;;;2.65;;
24843;SDS011;12921;51.392;12.240;2023-03-13T04:23:11;13.40;;;2.45;;
24843;SDS011;12921;51.392;12.240;2023-03-13T04:25:37;16.60;;;3.45;;
24843;SDS011;12921;51.392;12.240;2023-03-13T04:28:03;17.75;;;2.72;;
24843;SDS011;12921;51.392;12.240;2023-03-13T04:30:29;13.27;;;3.15;;
24843;SDS011;12921;51.392;12.240;2023-03-13T04:32:55;15.82;;;3.17;;
24843;SDS011;12921;51.392;12.240;2023-03-13T04:35:21;10.13;;;2.83;;
24843;SDS011;12921;51.392;12.240;2023-03-13T04:37:47;16.60;;;3.78;;
24843;SDS011;12921;51.392;12.240;2023-03-13T04:40:13;13.25;;;2.90;;
24843;SDS011;12921;51.392;12.240;2023-03-13T04:42:40;17.67;;;3.53;;
24843;SDS011;12921;51.392;12.240;2023-03-13T04:45:07;17.48;;;3.40;;
24843;SDS011;12921;51.392;12.240;2023-03-13T04:47:35;8.32;;;2.33;;
24843;SDS011;12921;51.392;12.240;2023-03-13T04:50:01;6.93;;;1.88;;
24843;SDS011;12921;51.392;12.240;2023-03-13T04:52:27;13.70;;;3.13;;
24843;SDS011;12921;51.392;12.240;2023-03-13T04:54:53;16.15;;;2.72;;
24843;SDS011;12921;51.392;12.240;2023-03-13T04:57:19;8.85;;;2.55;;
24843;SDS011;12921;51.392;12.240;2023-03-13T04:59:45;15.40;;;3.70;;
24843;SDS011;12921;51.392;12.240;2023-03-13T05:02:11;14.40;;;2.13;;
24843;SDS011;12921;51.392;12.240;2023-03-13T05:04:38;9.10;;;2.83;;
24843;SDS011;12921;51.392;12.240;2023-03-13T05:07:04;15.60;;;3.80;;
24843;SDS011;12921;51.392;12.240;2023-03-13T05:09:30;4.47;;;1.95;;
24843;SDS011;12921;51.392;12.240;2023-03-13T05:11:56;9.10;;;2.38;;
24843;SDS011;12921;51.392;12.240;2023-03-13T05:14:22;12.25;;;3.22;;
24843;SDS011;12921;51.392;12.240;2023-03-13T05:16:48;10.88;;;2.22;;
24843;SDS011;12921;51.392;12.240;2023-03-13T05:19:14;6.70;;;2.13;;
24843;SDS011;12921;51.392;12.240;2023-03-13T05:21:40;24.45;;;3.00;;
24843;SDS011;12921;51.392;12.240;2023-03-13T05:24:06;11.05;;;2.22;;
24843;SDS011;12921;51.392;12.240;2023-03-13T05:26:32;11.98;;;2.22;;
24843;SDS011;12921;51.392;12.240;2023-03-13T05:28:58;17.77;;;2.38;;
24843;SDS011;12921;51.392;12.240;2023-03-13T05:31:24;7.88;;;1.95;;
24843;SDS011;12921;51.392;12.240;2023-03-13T05:33:50;8.20;;;2.50;;
24843;SDS011;12921;51.392;12.240;2023-03-13T05:36:16;9.40;;;2.58;;
24843;SDS011;12921;51.392;12.240;2023-03-13T05:38:42;12.48;;;2.60;;
24843;SDS011;12921;51.392;12.240;2023-03-13T05:41:08;8.75;;;2.60;;
24843;SDS011;12921;51.392;12.240;2023-03-13T05:43:34;19.45;;;3.10;;
24843;SDS011;12921;51.392;12.240;2023-03-13T05:46:00;12.27;;;3.58;;
24843;SDS011;12921;51.392;12.240;2023-03-13T05:48:25;17.15;;;3.53;;
24843;SDS011;12921;51.392;12.240;2023-03-13T05:50:51;16.73;;;4.00;;
24843;SDS011;12921;51.392;12.240;2023-03-13T05:53:17;13.63;;;2.88;;
24843;SDS011;12921;51.392;12.240;2023-03-13T05:55:43;10.40;;;2.72;;
24843;SDS011;12921;51.392;12.240;2023-03-13T05:58:09;11.05;;;3.38;;
24843;SDS011;12921;51.392;12.240;2023-03-13T06:00:35;7.45;;;1.77;;
24843;SDS011;12921;51.392;12.240;2023-03-13T06:03:01;8.48;;;2.22;;
24843;SDS011;12921;51.392;12.240;2023-03-13T06:05:27;8.63;;;2.83;;
24843;SDS011;12921;51.392;12.240;2023-03-13T06:07:53;12.40;;;2.67;;
24843;SDS011;12921;51.392;12.240;2023-03-13T06:10:19;10.98;;;2.95;;
24843;SDS011;12921;51.392;12.240;2023-03-13T06:12:54;8.20;;;3.15;;
24843;SDS011;12921;51.392;12.240;2023-03-13T06:20:12;12.77;;;3.38;;
24843;SDS011;12921;51.392;12.240;2023-03-13T06:22:39;11.68;;;2.00;;
24843;SDS011;12921;51.392;12.240;2023-03-13T06:25:05;16.92;;;3.75;;
24843;SDS011;12921;51.392;12.240;2023-03-13T06:27:31;6.57;;;2.17;;
24843;SDS011;12921;51.392;12.240;2023-03-13T06:29:57;19.60;;;4.57;;
24843;SDS011;12921;51.392;12.240;2023-03-13T06:32:23;10.82;;;3.05;;
24843;SDS011;12921;51.392;12.240;2023-03-13T06:34:49;9.30;;;1.67;;
24843;SDS011;12921;51.392;12.240;2023-03-13T06:37:16;4.10;;;1.25;;
24843;SDS011;12921;51.392;12.240;2023-03-13T06:39:42;6.32;;;2.08;;
24843;SDS011;12921;51.392;12.240;2023-03-13T06:42:08;7.88;;;1.83;;
24843;SDS011;12921;51.392;12.240;2023-03-13T06:44:34;17.63;;;2.55;;
24843;SDS011;12921;51.392;12.240;2023-03-13T06:47:00;6.93;;;2.35;;
24843;SDS011;12921;51.392;12.240;2023-03-13T06:49:26;9.02;;;2.72;;
24843;SDS011;12921;51.392;12.240;2023-03-13T06:51:52;10.70;;;2.35;;
24843;SDS011;12921;51.392;12.240;2023-03-13T06:54:18;16.58;;;3.05;;
24843;SDS011;12921;51.392;12.240;2023-03-13T06:56:44;9.38;;;1.92;;
24843;SDS011;12921;51.392;12.240;2023-03-13T06:59:10;9.07;;;2.33;;
24843;SDS011;12921;51.392;12.240;2023-03-13T07:01:36;12.30;;;3.20;;
24843;SDS011;12921;51.392;12.240;2023-03-13T07:04:02;5.32;;;1.70;;
24843;SDS011;12921;51.392;12.240;2023-03-13T07:06:28;7.18;;;2.35;;
24843;SDS011;12921;51.392;12.240;2023-03-13T07:08:54;7.93;;;1.63;;
24843;SDS011;12921;51.392;12.240;2023-03-13T07:11:20;5.32;;;1.10;;
24843;SDS011;12921;51.392;12.240;2023-03-13T07:13:46;7.30;;;2.58;;
24843;SDS011;12921;51.392;12.240;2023-03-13T07:16:12;8.60;;;1.80;;
24843;SDS011;12921;51.392;12.240;2023-03-13T07:18:38;9.77;;;2.63;;
24843;SDS011;12921;51.392;12.240;2023-03-13T07:21:06;7.70;;;2.38;;
24843;SDS011;12921;51.392;12.240;2023-03-13T07:23:33;6.88;;;2.28;;
24843;SDS011;12921;51.392;12.240;2023-03-13T07:26:00;4.25;;;1.27;;
24843;SDS011;12921;51.392;12.240;2023-03-13T07:28:27;6.70;;;1.80;;
24843;SDS011;12921;51.392;12.240;2023-03-13T07:30:54;9.50;;;3.78;;
24843;SDS011;12921;51.392;12.240;2023-03-13T07:33:20;7.82;;;1.70;;
24843;SDS011;12921;51.392;12.240;2023-03-13T07:35:50;5.80;;;2.58;;
24843;SDS011;12921;51.392;12.240;2023-03-13T07:38:16;3.67;;;1.40;;
24843;SDS011;12921;51.392;12.240;2023-03-13T07:40:46;4.43;;;1.65;;
24843;SDS011;12921;51.392;12.240;2023-03-13T07:43:13;4.03;;;1.15;;
24843;SDS011;12921;51.392;12.240;2023-03-13T07:45:39;8.45;;;1.85;;
24843;SDS011;12921;51.392;12.240;2023-03-13T07:48:14;11.05;;;2.00;;
24843;SDS011;12921;51.392;12.240;2023-03-13T07:50:40;3.70;;;1.95;;
24843;SDS011;12921;51.392;12.240;2023-03-13T07:53:06;5.30;;;1.55;;
24843;SDS011;12921;51.392;12.240;2023-03-13T07:55:32;7.53;;;1.58;;
24843;SDS011;12921;51.392;12.240;2023-03-13T07:57:58;4.30;;;1.40;;
24843;SDS011;12921;51.392;12.240;2023-03-13T08:00:24;2.63;;;0.95;;
24843;SDS011;12921;51.392;12.240;2023-03-13T08:02:50;2.78;;;0.95;;
24843;SDS011;12921;51.392;12.240;2023-03-13T08:05:16;1.63;;;0.55;;
24843;SDS011;12921;51.392;12.240;2023-03-13T08:07:43;2.72;;;1.38;;
24843;SDS011;12921;51.392;12.240;2023-03-13T08:10:09;2.22;;;1.33;;
24843;SDS011;12921;51.392;12.240;2023-03-13T08:12:35;1.88;;;0.70;;
24843;SDS011;12921;51.392;12.240;2023-03-13T08:15:01;2.50;;;0.70;;
24843;SDS011;12921;51.392;12.240;2023-03-13T08:17:30;3.17;;;1.05;;
24843;SDS011;12921;51.392;12.240;2023-03-13T08:19:56;3.63;;;1.42;;
24843;SDS011;12921;51.392;12.240;2023-03-13T08:22:22;1.35;;;0.85;;
24843;SDS011;12921;51.392;12.240;2023-03-13T08:24:48;2.17;;;0.95;;
24843;SDS011;12921;51.392;12.240;2023-03-13T08:27:14;1.70;;;0.68;;
24843;SDS011;12921;51.392;12.240;2023-03-13T08:29:40;2.58;;;1.13;;
24843;SDS011;12921;51.392;12.240;2023-03-13T08:32:06;0.98;;;0.55;;
24843;SDS011;12921;51.392;12.240;2023-03-13T08:34:32;1.38;;;1.27;;
24843;SDS011;12921;51.392;12.240;2023-03-13T08:37:00;3.45;;;1.27;;
24843;SDS011;12921;51.392;12.240;2023-03-13T08:39:26;4.90;;;0.95;;
24843;SDS011;12921;51.392;12.240;2023-03-13T08:41:52;2.30;;;1.10;;
24843;SDS011;12921;51.392;12.240;2023-03-13T08:44:19;1.58;;;0.88;;
24843;SDS011;12921;51.392;12.240;2023-03-13T08:46:45;1.30;;;0.77;;
24843;SDS011;12921;51.392;12.240;2023-03-13T08:49:13;1.42;;;1.00;;
24843;SDS011;12921;51.392;12.240;2023-03-13T08:51:41;2.38;;;0.93;;
24843;SDS011;12921;51.392;12.240;2023-03-13T08:54:07;0.60;;;0.60;;
24843;SDS011;12921;51.392;12.240;2023-03-13T08:56:33;3.47;;;1.35;;
24843;SDS011;12921;51.392;12.240;2023-03-13T08:59:00;1.67;;;1.17;;
24843;SDS011;12921;51.392;12.240;2023-03-13T09:01:27;2.05;;;0.60;;
24843;SDS011;12921;51.392;12.240;2023-03-13T09:03:54;1.20;;;0.73;;
24843;SDS011;12921;51.392;12.240;2023-03-13T09:06:20;0.95;;;0.55;;
24843;SDS011;12921;51.392;12.240;2023-03-13T09:08:46;1.23;;;0.60;;
24843;SDS011;12921;51.392;12.240;2023-03-13T09:11:13;0.60;;;0.60;;
24843;SDS011;12921;51.392;12.240;2023-03-13T09:13:41;0.47;;;0.45;;
24843;SDS011;12921;51.392;12.240;2023-03-13T09:16:08;3.75;;;1.20;;
24843;SDS011;12921;51.392;12.240;2023-03-13T09:18:34;9.00;;;3.22;;
24843;SDS011;12921;51.392;12.240;2023-03-13T09:21:00;2.25;;;0.70;;
24843;SDS011;12921;51.392;12.240;2023-03-13T09:23:27;0.50;;;0.50;;
24843;SDS011;12921;51.392;12.240;2023-03-13T09:25:54;0.70;;;0.70;;
24843;SDS011;12921;51.392;12.240;2023-03-13T09:28:20;1.35;;;0.98;;
24843;SDS011;12921;51.392;12.240;2023-03-13T09:30:46;0.77;;;0.57;;
24843;SDS011;12921;51.392;12.240;2023-03-13T09:33:14;3.60;;;0.60;;
24843;SDS011;12921;51.392;12.240;2023-03-13T09:35:40;1.90;;;1.02;;
24843;SDS011;12921;51.392;12.240;2023-03-13T09:38:06;1.27;;;0.50;;
24843;SDS011;12921;51.392;12.240;2023-03-13T09:40:36;0.30;;;0.30;;
24843;SDS011;12921;51.392;12.240;2023-03-13T09:43:03;1.42;;;0.65;;
24843;SDS011;12921;51.392;12.240;2023-03-13T09:45:33;0.98;;;0.70;;
24843;SDS011;12921;51.392;12.240;2023-03-13T09:48:01;1.70;;;0.80;;
24843;SDS011;12921;51.392;12.240;2023-03-13T09:50:33;5.57;;;0.55;;
24843;SDS011;12921;51.392;12.240;2023-03-13T09:53:02;0.50;;;0.38;;
24843;SDS011;12921;51.392;12.240;2023-03-13T09:55:29;2.17;;;0.68;;
24843;SDS011;12921;51.392;12.240;2023-03-13T10:00:53;0.47;;;0.47;;
24843;SDS011;12921;51.392;12.240;2023-03-13T10:03:22;0.63;;;0.50;;
24843;SDS011;12921;51.392;12.240;2023-03-13T10:05:51;0.52;;;0.50;;
24843;SDS011;12921;51.392;12.240;2023-03-13T10:08:18;1.35;;;0.68;;
24843;SDS011;12921;51.392;12.240;2023-03-13T10:10:54;0.57;;;0.57;;
24843;SDS011;12921;51.392;12.240;2023-03-13T10:13:33;1.00;;;0.82;;
24843;SDS011;12921;51.392;12.240;2023-03-13T10:16:09;0.22;;;0.20;;
24843;SDS011;12921;51.392;12.240;2023-03-13T10:18:36;3.08;;;0.68;;
24843;SDS011;12921;51.392;12.240;2023-03-13T10:21:18;0.20;;;0.20;;
24843;SDS011;12921;51.392;12.240;2023-03-13T10:23:50;0.80;;;0.80;;
24843;SDS011;12921;51.392;12.240;2023-03-13T10:26:23;1.38;;;0.70;;
24843;SDS011;12921;51.392;12.240;2023-03-13T10:28:50;1.15;;;0.73;;
24843;SDS011;12921;51.392;12.240;2023-03-13T10:31:19;0.55;;;0.30;;
24843;SDS011;12921;51.392;12.240;2023-03-13T10:33:48;0.85;;;0.60;;
24843;SDS011;12921;51.392;12.240;2023-03-13T10:36:14;0.55;;;0.55;;
24843;SDS011;12921;51.392;12.240;2023-03-13T10:38:47;0.50;;;0.50;;
24843;SDS011;12921;51.392;12.240;2023-03-13T10:43:48;1.60;;;0.68;;
24843;SDS011;12921;51.392;12.240;2023-03-13T10:46:22;2.15;;;0.63;;
24843;SDS011;12921;51.392;12.240;2023-03-13T10:48:49;0.50;;;0.50;;
24843;SDS011;12921;51.392;12.240;2023-03-13T10:51:19;0.30;;;0.30;;
24843;SDS011;12921;51.392;12.240;2023-03-13T10:53:46;0.75;;;0.75;;
24843;SDS011;12921;51.392;12.240;2023-03-13T10:56:15;1.60;;;0.73;;
24843;SDS011;12921;51.392;12.240;2023-03-13T11:03:43;0.70;;;0.70;;
24843;SDS011;12921;51.392;12.240;2023-03-13T11:06:29;1.50;;;0.80;;
24843;SDS011;12921;51.392;12.240;2023-03-13T11:11:24;1.27;;;0.60;;
24843;SDS011;12921;51.392;12.240;2023-03-13T11:13:54;1.58;;;0.70;;
24843;SDS011;12921;51.392;12.240;2023-03-13T11:16:31;0.88;;;0.85;;
24843;SDS011;12921;51.392;12.240;2023-03-13T11:19:43;0.30;;;0.30;;
24843;SDS011;12921;51.392;12.240;2023-03-13T11:24:12;1.13;;;0.77;;
24843;SDS011;12921;51.392;12.240;2023-03-13T11:29:35;1.50;;;0.70;;
24843;SDS011;12921;51.392;12.240;2023-03-13T11:32:04;1.73;;;0.57;;
24843;SDS011;12921;51.392;12.240;2023-03-13T11:34:37;0.65;;;0.65;;
24843;SDS011;12921;51.392;12.240;2023-03-13T11:42:19;1.20;;;0.60;;
24843;SDS011;12921;51.392;12.240;2023-03-13T11:55:24;1.63;;;1.20;;
24843;SDS011;12921;51.392;12.240;2023-03-13T12:03:10;2.05;;;0.80;;
24843;SDS011;12921;51.392;12.240;2023-03-13T12:05:44;0.75;;;0.75;;
24843;SDS011;12921;51.392;12.240;2023-03-13T12:08:19;0.60;;;0.60;;
24843;SDS011;12921;51.392;12.240;2023-03-13T12:10:56;2.03;;;0.68;;
24843;SDS011;12921;51.392;12.240;2023-03-13T12:13:27;0.47;;;0.47;;
24843;SDS011;12921;51.392;12.240;2023-03-13T12:15:58;2.88;;;0.80;;
24843;SDS011;12921;51.392;12.240;2023-03-13T12:18:35;1.60;;;0.90;;
24843;SDS011;12921;51.392;12.240;2023-03-13T12:26:09;1.60;;;0.70;;
24843;SDS011;12921;51.392;12.240;2023-03-13T12:31:24;1.58;;;0.60;;
24843;SDS011;12921;51.392;12.240;2023-03-13T12:44:21;0.50;;;0.50;;
24843;SDS011;12921;51.392;12.240;2023-03-13T12:47:06;1.13;;;0.40;;
24843;SDS011;12921;51.392;12.240;2023-03-13T12:54:49;3.15;;;0.63;;
24843;SDS011;12921;51.392;12.240;2023-03-13T12:59:45;1.52;;;1.15;;
24843;SDS011;12921;51.392;12.240;2023-03-13T13:02:22;0.90;;;0.50;;
24843;SDS011;12921;51.392;12.240;2023-03-13T13:04:49;0.45;;;0.35;;
24843;SDS011;12921;51.392;12.240;2023-03-13T13:07:24;0.70;;;0.70;;
24843;SDS011;12921;51.392;12.240;2023-03-13T13:12:35;0.52;;;0.52;;
24843;SDS011;12921;51.392;12.240;2023-03-13T13:15:14;0.80;;;0.40;;
24843;SDS011;12921;51.392;12.240;2023-03-13T13:17:53;0.45;;;0.45;;
24843;SDS011;12921;51.392;12.240;2023-03-13T13:22:54;2.77;;;1.00;;
24843;SDS011;12921;51.392;12.240;2023-03-13T13:27:52;1.77;;;0.70;;
24843;SDS011;12921;51.392;12.240;2023-03-13T13:32:47;0.50;;;0.50;;
24843;SDS011;12921;51.392;12.240;2023-03-13T13:35:24;1.40;;;1.00;;
24843;SDS011;12921;51.392;12.240;2023-03-13T13:37:50;1.25;;;0.65;;
24843;SDS011;12921;51.392;12.240;2023-03-13T13:45:22;0.35;;;0.35;;
24843;SDS011;12921;51.392;12.240;2023-03-13T13:47:49;1.05;;;0.70;;
24843;SDS011;12921;51.392;12.240;2023-03-13T13:52:42;1.20;;;1.10;;
24843;SDS011;12921;51.392;12.240;2023-03-13T13:57:47;0.90;;;0.85;;
24843;SDS011;12921;51.392;12.240;2023-03-13T14:00:17;0.68;;;0.68;;
24843;SDS011;12921;51.392;12.240;2023-03-13T14:02:52;1.02;;;0.80;;
24843;SDS011;12921;51.392;12.240;2023-03-13T14:05:20;4.65;;;0.98;;
24843;SDS011;12921;51.392;12.240;2023-03-13T14:10:35;0.52;;;0.52;;
24843;SDS011;12921;51.392;12.240;2023-03-13T14:13:08;0.65;;;0.60;;
24843;SDS011;12921;51.392;12.240;2023-03-13T14:15:35;0.70;;;0.70;;
24843;SDS011;12921;51.392;12.240;2023-03-13T14:20:50;3.97;;;0.77;;
24843;SDS011;12921;51.392;12.240;2023-03-13T14:23:27;1.30;;;1.20;;
24843;SDS011;12921;51.392;12.240;2023-03-13T14:25:54;0.73;;;0.73;;
24843;SDS011;12921;51.392;12.240;2023-03-13T14:28:21;0.70;;;0.70;;
24843;SDS011;12921;51.392;12.240;2023-03-13T14:30:48;1.40;;;1.17;;
24843;SDS011;12921;51.392;12.240;2023-03-13T14:33:14;0.70;;;0.70;;
24843;SDS011;12921;51.392;12.240;2023-03-13T14:35:40;2.17;;;1.05;;
24843;SDS011;12921;51.392;12.240;2023-03-13T14:38:14;0.68;;;0.68;;
24843;SDS011;12921;51.392;12.240;2023-03-13T14:40:40;0.30;;;0.30;;
24843;SDS011;12921;51.392;12.240;2023-03-13T14:43:15;0.50;;;0.50;;
24843;SDS011;12921;51.392;12.240;2023-03-13T14:45:42;0.88;;;0.70;;
24843;SDS011;12921;51.392;12.240;2023-03-13T14:48:19;0.60;;;0.60;;
24843;SDS011;12921;51.392;12.240;2023-03-13T14:50:45;2.97;;;0.88;;
24843;SDS011;12921;51.392;12.240;2023-03-13T14:53:15;0.80;;;0.80;;
24843;SDS011;12921;51.392;12.240;2023-03-13T14:55:41;0.90;;;0.90;;
24843;SDS011;12921;51.392;12.240;2023-03-13T15:00:43;0.45;;;0.45;;
24843;SDS011;12921;51.392;12.240;2023-03-13T15:08:27;1.00;;;1.00;;
24843;SDS011;12921;51.392;12.240;2023-03-13T15:10:54;0.88;;;0.88;;
24843;SDS011;12921;51.392;12.240;2023-03-13T15:13:25;0.63;;;0.63;;
24843;SDS011;12921;51.392;12.240;2023-03-13T15:15:52;0.60;;;0.60;;
24843;SDS011;12921;51.392;12.240;2023-03-13T15:18:23;0.35;;;0.35;;
24843;SDS011;12921;51.392;12.240;2023-03-13T15:20:52;4.40;;;1.05;;
24843;SDS011;12921;51.392;12.240;2023-03-13T15:23:18;0.55;;;0.55;;
24843;SDS011;12921;51.392;12.240;2023-03-13T15:25:44;0.65;;;0.50;;
24843;SDS011;12921;51.392;12.240;2023-03-13T15:28:14;0.77;;;0.77;;
24843;SDS011;12921;51.392;12.240;2023-03-13T15:30:41;0.40;;;0.40;;
24843;SDS011;12921;51.392;12.240;2023-03-13T15:33:14;0.65;;;0.65;;
24843;SDS011;12921;51.392;12.240;2023-03-13T15:35:41;1.33;;;0.80;;
24843;SDS011;12921;51.392;12.240;2023-03-13T15:38:14;2.25;;;1.30;;
24843;SDS011;12921;51.392;12.240;2023-03-13T15:40:40;0.52;;;0.52;;
24843;SDS011;12921;51.392;12.240;2023-03-13T15:43:06;0.85;;;0.50;;
24843;SDS011;12921;51.392;12.240;2023-03-13T15:45:33;0.65;;;0.65;;
24843;SDS011;12921;51.392;12.240;2023-03-13T15:48:00;1.42;;;0.85;;
24843;SDS011;12921;51.392;12.240;2023-03-13T15:50:26;0.55;;;0.55;;
24843;SDS011;12921;51.392;12.240;2023-03-13T15:52:58;1.52;;;1.20;;
24843;SDS011;12921;51.392;12.240;2023-03-13T15:55:25;2.50;;;0.98;;
24843;SDS011;12921;51.392;12.240;2023-03-13T15:57:52;2.58;;;2.13;;
24843;SDS011;12921;51.392;12.240;2023-03-13T16:00:19;1.10;;;1.00;;
24843;SDS011;12921;51.392;12.240;2023-03-13T16:02:46;0.73;;;0.73;;
24843;SDS011;12921;51.392;12.240;2023-03-13T16:05:12;1.00;;;0.98;;
24843;SDS011;12921;51.392;12.240;2023-03-13T16:07:38;1.25;;;0.73;;
24843;SDS011;12921;51.392;12.240;2023-03-13T16:10:06;4.40;;;1.20;;
24843;SDS011;12921;51.392;12.240;2023-03-13T16:12:37;0.80;;;0.80;;
24843;SDS011;12921;51.392;12.240;2023-03-13T16:15:03;1.88;;;1.00;;
24843;SDS011;12921;51.392;12.240;2023-03-13T16:17:29;1.08;;;1.00;;
24843;SDS011;12921;51.392;12.240;2023-03-13T16:19:56;0.60;;;0.50;;
24843;SDS011;12921;51.392;12.240;2023-03-13T16:22:22;1.73;;;0.77;;
24843;SDS011;12921;51.392;12.240;2023-03-13T16:24:48;0.63;;;0.63;;